sensor_id;sensor_type;location;lat;lon;timestamp;temperature;humidity
68217;DHT22;55037;52.354;4.992;2022-09-09T00:00:25;17.30;82.40
68217;DHT22;55037;52.354;4.992;2022-09-09T00:03:16;17.30;82.70
68217;DHT22;55037;52.354;4.992;2022-09-09T00:08:23;17.20;83.10
68217;DHT22;55037;52.354;4.992;2022-09-09T00:10:58;17.20;83.20
68217;DHT22;55037;52.354;4.992;2022-09-09T00:13:46;17.10;83.60
68217;DHT22;55037;52.354;4.992;2022-09-09T00:16:24;17.10;83.90
68217;DHT22;55037;52.354;4.992;2022-09-09T00:19:08;17.10;84.10
68217;DHT22;55037;52.354;4.992;2022-09-09T00:22:08;17.10;84.30
68217;DHT22;55037;52.354;4.992;2022-09-09T00:24:44;17.00;84.50
68217;DHT22;55037;52.354;4.992;2022-09-09T00:27:37;17.00;84.70
68217;DHT22;55037;52.354;4.992;2022-09-09T00:32:47;17.00;85.00
68217;DHT22;55037;52.354;4.992;2022-09-09T00:35:26;17.00;85.20
68217;DHT22;55037;52.354;4.992;2022-09-09T00:38:00;16.90;85.30
68217;DHT22;55037;52.354;4.992;2022-09-09T00:40:37;16.90;85.40
68217;DHT22;55037;52.354;4.992;2022-09-09T00:48:57;16.90;85.50
68217;DHT22;55037;52.354;4.992;2022-09-09T00:51:51;16.90;85.50
68217;DHT22;55037;52.354;4.992;2022-09-09T00:54:29;16.80;85.70
68217;DHT22;55037;52.354;4.992;2022-09-09T01:02:45;16.70;86.60
68217;DHT22;55037;52.354;4.992;2022-09-09T01:05:57;16.70;86.80
68217;DHT22;55037;52.354;4.992;2022-09-09T01:14:20;16.60;87.50
68217;DHT22;55037;52.354;4.992;2022-09-09T01:16:59;16.60;87.70
68217;DHT22;55037;52.354;4.992;2022-09-09T01:20:02;16.50;87.20
68217;DHT22;55037;52.354;4.992;2022-09-09T01:22:32;16.50;88.00
68217;DHT22;55037;52.354;4.992;2022-09-09T01:25:19;16.50;88.30
68217;DHT22;55037;52.354;4.992;2022-09-09T01:28:01;16.50;88.00
68217;DHT22;55037;52.354;4.992;2022-09-09T01:30:33;16.40;88.90
68217;DHT22;55037;52.354;4.992;2022-09-09T01:33:01;16.40;89.20
68217;DHT22;55037;52.354;4.992;2022-09-09T01:38:03;16.40;89.40
68217;DHT22;55037;52.354;4.992;2022-09-09T01:40:32;16.30;89.50
68217;DHT22;55037;52.354;4.992;2022-09-09T01:42:59;16.20;89.60
68217;DHT22;55037;52.354;4.992;2022-09-09T01:45:27;16.20;89.90
68217;DHT22;55037;52.354;4.992;2022-09-09T01:47:55;16.20;90.00
68217;DHT22;55037;52.354;4.992;2022-09-09T01:50:36;16.10;90.10
68217;DHT22;55037;52.354;4.992;2022-09-09T01:53:03;16.00;90.20
68217;DHT22;55037;52.354;4.992;2022-09-09T01:55:39;16.00;90.30
68217;DHT22;55037;52.354;4.992;2022-09-09T02:04:35;15.90;90.70
68217;DHT22;55037;52.354;4.992;2022-09-09T02:10:22;15.90;90.90
68217;DHT22;55037;52.354;4.992;2022-09-09T02:13:08;16.00;90.90
68217;DHT22;55037;52.354;4.992;2022-09-09T02:18:15;16.10;90.60
68217;DHT22;55037;52.354;4.992;2022-09-09T02:20:45;16.10;90.60
68217;DHT22;55037;52.354;4.992;2022-09-09T02:23:14;16.10;90.50
68217;DHT22;55037;52.354;4.992;2022-09-09T02:25:44;16.10;90.50
68217;DHT22;55037;52.354;4.992;2022-09-09T02:28:20;16.10;90.40
68217;DHT22;55037;52.354;4.992;2022-09-09T02:30:49;16.10;90.40
68217;DHT22;55037;52.354;4.992;2022-09-09T02:33:30;16.10;90.40
68217;DHT22;55037;52.354;4.992;2022-09-09T02:35:59;16.10;90.50
68217;DHT22;55037;52.354;4.992;2022-09-09T02:38:35;16.10;90.50
68217;DHT22;55037;52.354;4.992;2022-09-09T02:41:08;16.00;90.20
68217;DHT22;55037;52.354;4.992;2022-09-09T02:43:36;16.10;90.20
68217;DHT22;55037;52.354;4.992;2022-09-09T02:46:29;16.00;90.20
68217;DHT22;55037;52.354;4.992;2022-09-09T02:49:03;16.00;90.20
68217;DHT22;55037;52.354;4.992;2022-09-09T02:51:58;16.00;90.30
68217;DHT22;55037;52.354;4.992;2022-09-09T02:57:08;15.90;90.20
68217;DHT22;55037;52.354;4.992;2022-09-09T02:59:39;15.90;90.30
68217;DHT22;55037;52.354;4.992;2022-09-09T03:02:06;15.90;90.40
68217;DHT22;55037;52.354;4.992;2022-09-09T03:04:34;15.80;90.40
68217;DHT22;55037;52.354;4.992;2022-09-09T03:07:05;15.80;90.50
68217;DHT22;55037;52.354;4.992;2022-09-09T03:09:32;15.80;90.50
68217;DHT22;55037;52.354;4.992;2022-09-09T03:11:59;15.80;90.60
68217;DHT22;55037;52.354;4.992;2022-09-09T03:14:28;15.80;90.60
68217;DHT22;55037;52.354;4.992;2022-09-09T03:16:55;15.70;90.70
68217;DHT22;55037;52.354;4.992;2022-09-09T03:19:25;15.70;90.70
68217;DHT22;55037;52.354;4.992;2022-09-09T03:21:52;15.70;90.80
68217;DHT22;55037;52.354;4.992;2022-09-09T03:24:19;15.70;90.70
68217;DHT22;55037;52.354;4.992;2022-09-09T03:26:46;15.70;90.90
68217;DHT22;55037;52.354;4.992;2022-09-09T03:29:16;15.70;90.90
68217;DHT22;55037;52.354;4.992;2022-09-09T03:31:45;15.70;90.90
68217;DHT22;55037;52.354;4.992;2022-09-09T03:34:12;15.70;90.80
68217;DHT22;55037;52.354;4.992;2022-09-09T03:36:40;15.70;90.80
68217;DHT22;55037;52.354;4.992;2022-09-09T03:39:08;15.80;90.80
68217;DHT22;55037;52.354;4.992;2022-09-09T03:41:36;15.80;90.80
68217;DHT22;55037;52.354;4.992;2022-09-09T03:44:04;15.80;90.70
68217;DHT22;55037;52.354;4.992;2022-09-09T03:46:36;15.80;90.70
68217;DHT22;55037;52.354;4.992;2022-09-09T03:49:05;15.70;90.40
68217;DHT22;55037;52.354;4.992;2022-09-09T03:51:32;15.70;90.80
68217;DHT22;55037;52.354;4.992;2022-09-09T03:54:04;15.80;90.80
68217;DHT22;55037;52.354;4.992;2022-09-09T03:56:32;15.80;90.80
68217;DHT22;55037;52.354;4.992;2022-09-09T03:58:59;15.80;91.00
68217;DHT22;55037;52.354;4.992;2022-09-09T04:01:27;15.80;91.10
68217;DHT22;55037;52.354;4.992;2022-09-09T04:03:55;15.80;91.10
68217;DHT22;55037;52.354;4.992;2022-09-09T04:06:25;15.70;91.00
68217;DHT22;55037;52.354;4.992;2022-09-09T04:08:53;15.70;90.70
68217;DHT22;55037;52.354;4.992;2022-09-09T04:11:21;15.60;91.10
68217;DHT22;55037;52.354;4.992;2022-09-09T04:13:51;15.60;91.10
68217;DHT22;55037;52.354;4.992;2022-09-09T04:16:18;15.60;91.20
68217;DHT22;55037;52.354;4.992;2022-09-09T04:18:47;15.50;91.40
68217;DHT22;55037;52.354;4.992;2022-09-09T04:21:16;15.50;91.60
68217;DHT22;55037;52.354;4.992;2022-09-09T04:23:43;15.50;91.60
68217;DHT22;55037;52.354;4.992;2022-09-09T04:26:11;15.50;91.50
68217;DHT22;55037;52.354;4.992;2022-09-09T04:28:39;15.40;91.70
68217;DHT22;55037;52.354;4.992;2022-09-09T04:31:20;15.50;91.70
68217;DHT22;55037;52.354;4.992;2022-09-09T04:33:53;15.40;91.90
68217;DHT22;55037;52.354;4.992;2022-09-09T04:36:21;15.40;92.00
68217;DHT22;55037;52.354;4.992;2022-09-09T04:38:51;15.30;92.00
68217;DHT22;55037;52.354;4.992;2022-09-09T04:41:19;15.30;92.10
68217;DHT22;55037;52.354;4.992;2022-09-09T04:43:49;15.40;92.00
68217;DHT22;55037;52.354;4.992;2022-09-09T04:46:17;15.40;92.00
68217;DHT22;55037;52.354;4.992;2022-09-09T04:48:44;15.40;92.00
68217;DHT22;55037;52.354;4.992;2022-09-09T04:51:13;15.30;91.90
68217;DHT22;55037;52.354;4.992;2022-09-09T04:53:42;15.40;91.90
68217;DHT22;55037;52.354;4.992;2022-09-09T04:56:13;15.40;91.80
68217;DHT22;55037;52.354;4.992;2022-09-09T04:58:45;15.40;91.80
68217;DHT22;55037;52.354;4.992;2022-09-09T05:01:19;15.50;91.60
68217;DHT22;55037;52.354;4.992;2022-09-09T05:03:48;15.40;91.50
68217;DHT22;55037;52.354;4.992;2022-09-09T05:06:20;15.50;91.50
68217;DHT22;55037;52.354;4.992;2022-09-09T05:08:51;15.40;91.50
68217;DHT22;55037;52.354;4.992;2022-09-09T05:11:27;15.40;91.60
68217;DHT22;55037;52.354;4.992;2022-09-09T05:13:59;15.40;91.50
68217;DHT22;55037;52.354;4.992;2022-09-09T05:16:28;15.40;91.50
68217;DHT22;55037;52.354;4.992;2022-09-09T05:18:57;15.40;91.50
68217;DHT22;55037;52.354;4.992;2022-09-09T05:21:25;15.50;91.40
68217;DHT22;55037;52.354;4.992;2022-09-09T05:23:53;15.50;91.30
68217;DHT22;55037;52.354;4.992;2022-09-09T05:26:21;15.50;91.30
68217;DHT22;55037;52.354;4.992;2022-09-09T05:28:51;15.60;91.20
68217;DHT22;55037;52.354;4.992;2022-09-09T05:31:19;15.60;91.10
68217;DHT22;55037;52.354;4.992;2022-09-09T05:33:50;15.60;91.00
68217;DHT22;55037;52.354;4.992;2022-09-09T05:36:19;15.70;90.90
68217;DHT22;55037;52.354;4.992;2022-09-09T05:38:50;15.70;90.80
68217;DHT22;55037;52.354;4.992;2022-09-09T05:41:19;15.70;90.60
68217;DHT22;55037;52.354;4.992;2022-09-09T05:43:47;15.80;90.70
68217;DHT22;55037;52.354;4.992;2022-09-09T05:46:20;15.80;90.70
68217;DHT22;55037;52.354;4.992;2022-09-09T05:48:51;15.80;90.60
68217;DHT22;55037;52.354;4.992;2022-09-09T05:51:23;15.80;90.60
68217;DHT22;55037;52.354;4.992;2022-09-09T05:53:51;15.90;90.50
68217;DHT22;55037;52.354;4.992;2022-09-09T05:56:21;16.00;90.40
68217;DHT22;55037;52.354;4.992;2022-09-09T05:58:49;16.10;90.20
68217;DHT22;55037;52.354;4.992;2022-09-09T06:01:20;16.10;90.10
68217;DHT22;55037;52.354;4.992;2022-09-09T06:03:49;16.20;90.00
68217;DHT22;55037;52.354;4.992;2022-09-09T06:06:18;16.20;89.80
68217;DHT22;55037;52.354;4.992;2022-09-09T06:08:55;16.30;89.60
68217;DHT22;55037;52.354;4.992;2022-09-09T06:11:30;16.40;89.60
68217;DHT22;55037;52.354;4.992;2022-09-09T06:14:00;16.50;88.80
68217;DHT22;55037;52.354;4.992;2022-09-09T06:16:29;16.50;88.50
68217;DHT22;55037;52.354;4.992;2022-09-09T06:19:00;16.60;88.20
68217;DHT22;55037;52.354;4.992;2022-09-09T06:21:34;16.60;88.30
68217;DHT22;55037;52.354;4.992;2022-09-09T06:24:06;16.70;88.10
68217;DHT22;55037;52.354;4.992;2022-09-09T06:26:37;16.80;87.90
68217;DHT22;55037;52.354;4.992;2022-09-09T06:29:05;17.00;87.40
68217;DHT22;55037;52.354;4.992;2022-09-09T06:31:34;17.20;86.40
68217;DHT22;55037;52.354;4.992;2022-09-09T06:34:10;17.30;85.70
68217;DHT22;55037;52.354;4.992;2022-09-09T06:36:41;17.30;85.00
68217;DHT22;55037;52.354;4.992;2022-09-09T06:39:08;17.20;83.90
68217;DHT22;55037;52.354;4.992;2022-09-09T06:41:41;17.10;84.90
68217;DHT22;55037;52.354;4.992;2022-09-09T06:44:24;17.10;84.70
68217;DHT22;55037;52.354;4.992;2022-09-09T06:46:56;17.10;85.00
68217;DHT22;55037;52.354;4.992;2022-09-09T06:49:23;17.20;85.00
68217;DHT22;55037;52.354;4.992;2022-09-09T06:51:50;17.40;84.40
68217;DHT22;55037;52.354;4.992;2022-09-09T06:54:20;17.60;84.00
68217;DHT22;55037;52.354;4.992;2022-09-09T06:56:49;17.90;83.70
68217;DHT22;55037;52.354;4.992;2022-09-09T06:59:21;18.20;81.90
68217;DHT22;55037;52.354;4.992;2022-09-09T07:01:49;18.50;80.20
68217;DHT22;55037;52.354;4.992;2022-09-09T07:04:22;18.60;79.30
68217;DHT22;55037;52.354;4.992;2022-09-09T07:06:49;18.70;78.70
68217;DHT22;55037;52.354;4.992;2022-09-09T07:09:22;18.80;78.20
68217;DHT22;55037;52.354;4.992;2022-09-09T07:11:52;19.00;77.00
68217;DHT22;55037;52.354;4.992;2022-09-09T07:14:22;19.00;76.60
68217;DHT22;55037;52.354;4.992;2022-09-09T07:16:55;18.90;76.30
68217;DHT22;55037;52.354;4.992;2022-09-09T07:19:27;18.90;76.30
68217;DHT22;55037;52.354;4.992;2022-09-09T07:21:55;18.90;76.20
68217;DHT22;55037;52.354;4.992;2022-09-09T07:24:24;19.00;76.80
68217;DHT22;55037;52.354;4.992;2022-09-09T07:26:51;18.90;76.40
68217;DHT22;55037;52.354;4.992;2022-09-09T07:29:19;18.80;76.00
68217;DHT22;55037;52.354;4.992;2022-09-09T07:31:48;18.70;75.90
68217;DHT22;55037;52.354;4.992;2022-09-09T07:34:24;18.60;76.90
68217;DHT22;55037;52.354;4.992;2022-09-09T07:36:51;18.50;77.40
68217;DHT22;55037;52.354;4.992;2022-09-09T07:39:19;18.50;77.30
68217;DHT22;55037;52.354;4.992;2022-09-09T07:41:52;18.40;78.00
68217;DHT22;55037;52.354;4.992;2022-09-09T07:44:24;18.30;78.20
68217;DHT22;55037;52.354;4.992;2022-09-09T07:46:58;18.30;78.30
68217;DHT22;55037;52.354;4.992;2022-09-09T07:49:32;18.50;78.60
68217;DHT22;55037;52.354;4.992;2022-09-09T07:52:02;18.50;78.20
68217;DHT22;55037;52.354;4.992;2022-09-09T07:54:31;18.50;78.10
68217;DHT22;55037;52.354;4.992;2022-09-09T07:57:01;18.60;77.70
68217;DHT22;55037;52.354;4.992;2022-09-09T07:59:32;18.70;77.80
68217;DHT22;55037;52.354;4.992;2022-09-09T08:02:01;18.60;77.20
68217;DHT22;55037;52.354;4.992;2022-09-09T08:04:31;18.50;77.50
68217;DHT22;55037;52.354;4.992;2022-09-09T08:07:00;18.50;77.90
68217;DHT22;55037;52.354;4.992;2022-09-09T08:09:30;18.60;78.10
68217;DHT22;55037;52.354;4.992;2022-09-09T08:12:08;18.60;77.60
68217;DHT22;55037;52.354;4.992;2022-09-09T08:14:36;18.60;77.80
68217;DHT22;55037;52.354;4.992;2022-09-09T08:17:03;18.90;78.10
68217;DHT22;55037;52.354;4.992;2022-09-09T08:19:32;19.30;76.30
68217;DHT22;55037;52.354;4.992;2022-09-09T08:22:07;19.60;74.80
68217;DHT22;55037;52.354;4.992;2022-09-09T08:24:36;19.90;73.80
68217;DHT22;55037;52.354;4.992;2022-09-09T08:27:03;20.30;72.50
68217;DHT22;55037;52.354;4.992;2022-09-09T08:29:30;20.40;70.10
68217;DHT22;55037;52.354;4.992;2022-09-09T08:31:58;20.50;70.50
68217;DHT22;55037;52.354;4.992;2022-09-09T08:34:27;20.80;69.10
68217;DHT22;55037;52.354;4.992;2022-09-09T08:36:56;21.10;67.70
68217;DHT22;55037;52.354;4.992;2022-09-09T08:39:30;21.20;66.70
68217;DHT22;55037;52.354;4.992;2022-09-09T08:55:41;19.60;71.10
68217;DHT22;55037;52.354;4.992;2022-09-09T08:58:17;19.40;72.00
68217;DHT22;55037;52.354;4.992;2022-09-09T09:01:35;19.40;72.60
68217;DHT22;55037;52.354;4.992;2022-09-09T09:12:58;18.90;74.70
68217;DHT22;55037;52.354;4.992;2022-09-09T09:15:31;19.00;75.00
68217;DHT22;55037;52.354;4.992;2022-09-09T09:18:04;18.80;74.80
68217;DHT22;55037;52.354;4.992;2022-09-09T09:23:22;19.30;74.30
68217;DHT22;55037;52.354;4.992;2022-09-09T09:25:54;19.50;73.20
68217;DHT22;55037;52.354;4.992;2022-09-09T09:28:27;19.60;71.80
68217;DHT22;55037;52.354;4.992;2022-09-09T09:31:05;19.60;71.60
68217;DHT22;55037;52.354;4.992;2022-09-09T09:33:46;19.60;71.50
68217;DHT22;55037;52.354;4.992;2022-09-09T09:36:13;19.60;71.30
68217;DHT22;55037;52.354;4.992;2022-09-09T09:38:59;19.60;71.30
68217;DHT22;55037;52.354;4.992;2022-09-09T09:41:47;19.50;71.70
68217;DHT22;55037;52.354;4.992;2022-09-09T09:44:30;19.50;72.30
68217;DHT22;55037;52.354;4.992;2022-09-09T09:47:15;19.50;72.00
68217;DHT22;55037;52.354;4.992;2022-09-09T09:49:58;19.60;72.30
68217;DHT22;55037;52.354;4.992;2022-09-09T09:52:30;19.70;71.30
68217;DHT22;55037;52.354;4.992;2022-09-09T09:55:03;19.60;70.80
68217;DHT22;55037;52.354;4.992;2022-09-09T09:57:34;19.40;71.90
68217;DHT22;55037;52.354;4.992;2022-09-09T10:00:18;19.40;72.50
68217;DHT22;55037;52.354;4.992;2022-09-09T10:02:55;19.60;72.30
68217;DHT22;55037;52.354;4.992;2022-09-09T10:05:28;19.90;71.00
68217;DHT22;55037;52.354;4.992;2022-09-09T10:08:17;20.00;70.50
68217;DHT22;55037;52.354;4.992;2022-09-09T10:16:28;18.90;75.30
68217;DHT22;55037;52.354;4.992;2022-09-09T10:19:01;19.40;75.80
68217;DHT22;55037;52.354;4.992;2022-09-09T10:27:05;20.60;69.70
68217;DHT22;55037;52.354;4.992;2022-09-09T10:30:05;21.30;67.70
68217;DHT22;55037;52.354;4.992;2022-09-09T10:33:09;21.90;64.20
68217;DHT22;55037;52.354;4.992;2022-09-09T10:35:49;21.60;63.90
68217;DHT22;55037;52.354;4.992;2022-09-09T10:38:24;21.20;65.00
68217;DHT22;55037;52.354;4.992;2022-09-09T10:57:05;23.60;56.70
68217;DHT22;55037;52.354;4.992;2022-09-09T10:59:40;24.40;57.50
68217;DHT22;55037;52.354;4.992;2022-09-09T11:04:48;27.50;45.90
68217;DHT22;55037;52.354;4.992;2022-09-09T11:07:41;27.30;43.30
68217;DHT22;55037;52.354;4.992;2022-09-09T11:10:47;27.10;45.60
68217;DHT22;55037;52.354;4.992;2022-09-09T11:18:46;25.30;47.50
68217;DHT22;55037;52.354;4.992;2022-09-09T11:21:21;24.30;50.80
68217;DHT22;55037;52.354;4.992;2022-09-09T11:23:57;23.10;54.70
68217;DHT22;55037;52.354;4.992;2022-09-09T11:26:33;22.20;58.90
68217;DHT22;55037;52.354;4.992;2022-09-09T11:29:08;21.40;61.80
68217;DHT22;55037;52.354;4.992;2022-09-09T11:34:55;20.30;66.20
68217;DHT22;55037;52.354;4.992;2022-09-09T11:40:23;19.30;72.90
68217;DHT22;55037;52.354;4.992;2022-09-09T11:43:11;19.60;73.80
68217;DHT22;55037;52.354;4.992;2022-09-09T11:45:41;20.00;71.60
68217;DHT22;55037;52.354;4.992;2022-09-09T11:48:37;20.40;70.50
68217;DHT22;55037;52.354;4.992;2022-09-09T11:51:10;21.50;70.60
68217;DHT22;55037;52.354;4.992;2022-09-09T11:53:52;23.70;59.30
68217;DHT22;55037;52.354;4.992;2022-09-09T11:56:27;23.50;57.30
68217;DHT22;55037;52.354;4.992;2022-09-09T11:58:57;22.70;60.20
68217;DHT22;55037;52.354;4.992;2022-09-09T12:01:36;22.30;61.10
68217;DHT22;55037;52.354;4.992;2022-09-09T12:07:02;23.10;60.50
68217;DHT22;55037;52.354;4.992;2022-09-09T12:14:43;22.30;61.00
68217;DHT22;55037;52.354;4.992;2022-09-09T12:17:26;21.90;64.80
68217;DHT22;55037;52.354;4.992;2022-09-09T12:20:13;21.60;66.10
68217;DHT22;55037;52.354;4.992;2022-09-09T12:26:22;23.00;60.50
68217;DHT22;55037;52.354;4.992;2022-09-09T12:33:46;21.00;68.10
68217;DHT22;55037;52.354;4.992;2022-09-09T12:36:18;21.00;68.90
68217;DHT22;55037;52.354;4.992;2022-09-09T12:38:46;22.00;70.20
68217;DHT22;55037;52.354;4.992;2022-09-09T12:41:19;25.30;59.60
68217;DHT22;55037;52.354;4.992;2022-09-09T12:43:47;27.00;50.30
68217;DHT22;55037;52.354;4.992;2022-09-09T12:46:23;27.80;46.90
68217;DHT22;55037;52.354;4.992;2022-09-09T12:48:54;27.30;43.90
68217;DHT22;55037;52.354;4.992;2022-09-09T12:51:28;25.50;47.50
68217;DHT22;55037;52.354;4.992;2022-09-09T12:53:56;23.90;53.20
68217;DHT22;55037;52.354;4.992;2022-09-09T12:56:33;22.60;58.80
68217;DHT22;55037;52.354;4.992;2022-09-09T12:59:00;21.90;62.20
68217;DHT22;55037;52.354;4.992;2022-09-09T13:01:30;21.80;63.90
68217;DHT22;55037;52.354;4.992;2022-09-09T13:03:58;21.60;63.30
68217;DHT22;55037;52.354;4.992;2022-09-09T13:06:30;21.10;64.80
68217;DHT22;55037;52.354;4.992;2022-09-09T13:08:59;19.70;67.00
68217;DHT22;55037;52.354;4.992;2022-09-09T13:11:40;20.30;68.70
68217;DHT22;55037;52.354;4.992;2022-09-09T13:14:22;19.80;71.10
68217;DHT22;55037;52.354;4.992;2022-09-09T13:16:57;19.30;75.30
68217;DHT22;55037;52.354;4.992;2022-09-09T13:19:25;19.10;77.30
68217;DHT22;55037;52.354;4.992;2022-09-09T13:21:55;18.90;78.40
68217;DHT22;55037;52.354;4.992;2022-09-09T13:24:31;18.70;80.20
68217;DHT22;55037;52.354;4.992;2022-09-09T13:27:02;18.60;81.50
68217;DHT22;55037;52.354;4.992;2022-09-09T13:29:30;18.40;82.60
68217;DHT22;55037;52.354;4.992;2022-09-09T13:32:06;18.10;82.10
68217;DHT22;55037;52.354;4.992;2022-09-09T13:34:35;17.90;83.10
68217;DHT22;55037;52.354;4.992;2022-09-09T13:37:05;17.60;84.80
68217;DHT22;55037;52.354;4.992;2022-09-09T13:39:38;17.60;86.30
68217;DHT22;55037;52.354;4.992;2022-09-09T13:42:19;17.60;87.30
68217;DHT22;55037;52.354;4.992;2022-09-09T13:44:49;17.60;89.20
68217;DHT22;55037;52.354;4.992;2022-09-09T13:47:21;17.80;88.40
68217;DHT22;55037;52.354;4.992;2022-09-09T13:49:50;18.00;87.60
68217;DHT22;55037;52.354;4.992;2022-09-09T13:52:18;18.40;88.50
68217;DHT22;55037;52.354;4.992;2022-09-09T13:54:50;18.70;87.60
68217;DHT22;55037;52.354;4.992;2022-09-09T13:57:22;19.00;85.10
68217;DHT22;55037;52.354;4.992;2022-09-09T13:59:53;19.10;84.10
68217;DHT22;55037;52.354;4.992;2022-09-09T14:02:37;19.30;83.40
68217;DHT22;55037;52.354;4.992;2022-09-09T14:05:06;19.50;82.50
68217;DHT22;55037;52.354;4.992;2022-09-09T14:07:33;19.70;81.60
68217;DHT22;55037;52.354;4.992;2022-09-09T14:10:00;19.70;80.40
68217;DHT22;55037;52.354;4.992;2022-09-09T14:12:27;19.80;81.80
68217;DHT22;55037;52.354;4.992;2022-09-09T14:14:54;20.00;80.80
68217;DHT22;55037;52.354;4.992;2022-09-09T14:17:22;20.10;79.60
68217;DHT22;55037;52.354;4.992;2022-09-09T14:19:49;20.20;79.20
68217;DHT22;55037;52.354;4.992;2022-09-09T14:22:16;20.20;77.80
68217;DHT22;55037;52.354;4.992;2022-09-09T14:24:44;20.10;77.50
68217;DHT22;55037;52.354;4.992;2022-09-09T14:27:11;20.00;78.20
68217;DHT22;55037;52.354;4.992;2022-09-09T14:29:38;20.00;78.30
68217;DHT22;55037;52.354;4.992;2022-09-09T14:32:05;20.10;78.60
68217;DHT22;55037;52.354;4.992;2022-09-09T14:34:38;20.30;78.10
68217;DHT22;55037;52.354;4.992;2022-09-09T14:37:05;20.40;77.70
68217;DHT22;55037;52.354;4.992;2022-09-09T14:39:33;20.80;76.10
68217;DHT22;55037;52.354;4.992;2022-09-09T14:42:00;21.00;75.50
68217;DHT22;55037;52.354;4.992;2022-09-09T14:44:28;21.30;74.30
68217;DHT22;55037;52.354;4.992;2022-09-09T14:46:55;21.60;73.90
68217;DHT22;55037;52.354;4.992;2022-09-09T14:49:22;22.00;72.90
68217;DHT22;55037;52.354;4.992;2022-09-09T14:51:49;22.20;70.70
68217;DHT22;55037;52.354;4.992;2022-09-09T14:54:16;21.80;70.10
68217;DHT22;55037;52.354;4.992;2022-09-09T14:56:43;21.40;71.20
68217;DHT22;55037;52.354;4.992;2022-09-09T14:59:11;21.10;72.70
68217;DHT22;55037;52.354;4.992;2022-09-09T15:01:38;20.90;73.50
68217;DHT22;55037;52.354;4.992;2022-09-09T15:04:05;20.80;74.20
68217;DHT22;55037;52.354;4.992;2022-09-09T15:06:34;20.50;74.00
68217;DHT22;55037;52.354;4.992;2022-09-09T15:09:03;20.40;75.20
68217;DHT22;55037;52.354;4.992;2022-09-09T15:11:34;20.40;75.60
68217;DHT22;55037;52.354;4.992;2022-09-09T15:14:08;20.50;75.20
68217;DHT22;55037;52.354;4.992;2022-09-09T15:16:36;20.60;74.30
68217;DHT22;55037;52.354;4.992;2022-09-09T15:19:03;20.60;74.10
68217;DHT22;55037;52.354;4.992;2022-09-09T15:21:33;20.60;73.30
68217;DHT22;55037;52.354;4.992;2022-09-09T15:24:00;20.30;73.20
68217;DHT22;55037;52.354;4.992;2022-09-09T15:26:28;20.10;74.10
68217;DHT22;55037;52.354;4.992;2022-09-09T15:28:56;19.90;74.40
68217;DHT22;55037;52.354;4.992;2022-09-09T15:31:28;19.70;75.40
68217;DHT22;55037;52.354;4.992;2022-09-09T15:34:02;19.50;76.80
68217;DHT22;55037;52.354;4.992;2022-09-09T15:39:01;19.30;78.10
68217;DHT22;55037;52.354;4.992;2022-09-09T15:41:29;19.30;78.70
68217;DHT22;55037;52.354;4.992;2022-09-09T15:43:58;19.20;79.20
68217;DHT22;55037;52.354;4.992;2022-09-09T15:46:35;19.00;79.90
68217;DHT22;55037;52.354;4.992;2022-09-09T15:49:14;18.90;80.50
68217;DHT22;55037;52.354;4.992;2022-09-09T15:51:44;18.90;82.10
68217;DHT22;55037;52.354;4.992;2022-09-09T15:54:14;18.90;82.30
68217;DHT22;55037;52.354;4.992;2022-09-09T15:56:41;19.00;82.80
68217;DHT22;55037;52.354;4.992;2022-09-09T15:59:08;18.90;82.80
68217;DHT22;55037;52.354;4.992;2022-09-09T16:01:36;19.00;82.90
68217;DHT22;55037;52.354;4.992;2022-09-09T16:04:03;19.00;82.60
68217;DHT22;55037;52.354;4.992;2022-09-09T16:06:31;19.00;82.60
68217;DHT22;55037;52.354;4.992;2022-09-09T16:08:59;18.90;82.20
68217;DHT22;55037;52.354;4.992;2022-09-09T16:11:30;18.80;82.60
68217;DHT22;55037;52.354;4.992;2022-09-09T16:13:58;18.50;84.00
68217;DHT22;55037;52.354;4.992;2022-09-09T16:16:28;18.40;86.00
68217;DHT22;55037;52.354;4.992;2022-09-09T16:18:58;18.30;86.90
68217;DHT22;55037;52.354;4.992;2022-09-09T16:21:28;18.20;87.40
68217;DHT22;55037;52.354;4.992;2022-09-09T16:24:00;18.10;88.10
68217;DHT22;55037;52.354;4.992;2022-09-09T16:26:30;18.00;89.00
68217;DHT22;55037;52.354;4.992;2022-09-09T16:28:58;18.00;89.00
68217;DHT22;55037;52.354;4.992;2022-09-09T16:31:27;18.00;90.00
68217;DHT22;55037;52.354;4.992;2022-09-09T16:33:54;18.00;90.20
68217;DHT22;55037;52.354;4.992;2022-09-09T16:36:30;18.10;90.40
68217;DHT22;55037;52.354;4.992;2022-09-09T16:39:05;18.30;90.40
68217;DHT22;55037;52.354;4.992;2022-09-09T16:41:33;18.40;90.30
68217;DHT22;55037;52.354;4.992;2022-09-09T16:44:03;18.30;88.40
68217;DHT22;55037;52.354;4.992;2022-09-09T16:46:33;18.30;88.50
68217;DHT22;55037;52.354;4.992;2022-09-09T16:49:03;18.20;88.10
68217;DHT22;55037;52.354;4.992;2022-09-09T16:51:39;18.10;88.80
68217;DHT22;55037;52.354;4.992;2022-09-09T16:54:08;18.10;89.50
68217;DHT22;55037;52.354;4.992;2022-09-09T16:56:38;18.00;89.90
68217;DHT22;55037;52.354;4.992;2022-09-09T16:59:08;18.00;89.60
68217;DHT22;55037;52.354;4.992;2022-09-09T17:01:38;17.90;90.00
68217;DHT22;55037;52.354;4.992;2022-09-09T17:04:19;17.90;90.20
68217;DHT22;55037;52.354;4.992;2022-09-09T17:06:53;18.00;90.30
68217;DHT22;55037;52.354;4.992;2022-09-09T17:09:21;18.20;90.00
68217;DHT22;55037;52.354;4.992;2022-09-09T17:11:50;18.30;89.40
68217;DHT22;55037;52.354;4.992;2022-09-09T17:14:20;18.40;88.20
68217;DHT22;55037;52.354;4.992;2022-09-09T17:16:48;18.40;87.70
68217;DHT22;55037;52.354;4.992;2022-09-09T17:19:15;18.40;88.40
68217;DHT22;55037;52.354;4.992;2022-09-09T17:21:42;18.30;87.60
68217;DHT22;55037;52.354;4.992;2022-09-09T17:24:29;18.20;88.00
68217;DHT22;55037;52.354;4.992;2022-09-09T17:26:57;18.10;88.40
68217;DHT22;55037;52.354;4.992;2022-09-09T17:29:25;18.20;88.80
68217;DHT22;55037;52.354;4.992;2022-09-09T17:31:53;18.10;88.90
68217;DHT22;55037;52.354;4.992;2022-09-09T17:34:21;18.20;88.60
68217;DHT22;55037;52.354;4.992;2022-09-09T17:36:48;18.20;88.80
68217;DHT22;55037;52.354;4.992;2022-09-09T17:39:15;18.30;88.70
68217;DHT22;55037;52.354;4.992;2022-09-09T17:41:42;18.30;88.50
68217;DHT22;55037;52.354;4.992;2022-09-09T17:44:09;18.30;88.10
68217;DHT22;55037;52.354;4.992;2022-09-09T17:46:39;18.30;88.40
68217;DHT22;55037;52.354;4.992;2022-09-09T17:49:09;18.40;88.30
68217;DHT22;55037;52.354;4.992;2022-09-09T17:51:37;18.40;88.60
68217;DHT22;55037;52.354;4.992;2022-09-09T17:54:07;18.40;88.50
68217;DHT22;55037;52.354;4.992;2022-09-09T17:56:38;18.40;88.40
68217;DHT22;55037;52.354;4.992;2022-09-09T17:59:07;18.20;88.20
68217;DHT22;55037;52.354;4.992;2022-09-09T18:01:37;18.00;89.10
68217;DHT22;55037;52.354;4.992;2022-09-09T18:04:08;18.00;89.80
68217;DHT22;55037;52.354;4.992;2022-09-09T18:06:47;17.80;90.10